Barkersville, New York
Current Conditions -  °F | °C
As of 6:55 AM on Wednesday 28 Jan 2015 (Local Time) from KNY0 Reporting Station
Clear Clear  
Wind Chill: -11°   Ceiling: Unl
Heat Index:   Visibility: 10mi
Dew Point: -6°   Wind: 12mph
Humidity: 60%   Direction: 280°W
Pressure: 30"   Gusts: 16mph
Location:  43.1097°N, 74.0176°W
Report Text: KNY0 281155Z AUTO 28010G14KT 10SM CLR M15/M21 A3000 RMK AO2 T11511213 11124 21151
Loading
Personal Weather Stations






























Interactive Weather Map New forecast layout! Learn more

10-Day Weather Forecast

Advertisements
Track Severe Weather on mobile